Time;durP1;ratioP1;P1;durP2;ratioP2;P2;SDS_P1;SDS_P2;PMS_P1;PMS_P2;Temp;Humidity;BMP_temperature;BMP_pressure;BME280_temperature;BME280_humidity;BME280_pressure;Samples;Min_cycle;Max_cycle;Signal;HPM_P1;HPM_P2
2023/05/09 00:02:11;;;;;;;23.63;19.70;;;;;;;14.89;84.52;101567.22;4829844;29;20483;-80
2023/05/09 00:04:37;;;;;;;24.08;19.70;;;;;;;14.81;84.88;101570.13;4840238;29;20041;-81
2023/05/09 00:07:02;;;;;;;26.35;20.35;;;;;;;14.80;85.35;101573.88;4842716;29;20105;-81
2023/05/09 00:09:28;;;;;;;23.65;19.42;;;;;;;14.82;85.22;101571.81;4842005;29;20044;-81
2023/05/09 00:11:53;;;;;;;23.42;18.98;;;;;;;14.76;85.70;101568.03;4840294;29;20378;-81
2023/05/09 00:14:19;;;;;;;26.52;21.27;;;;;;;14.67;85.85;101548.41;4833749;29;20371;-83
2023/05/09 00:16:44;;;;;;;26.98;20.95;;;;;;;14.62;85.56;101560.91;4827936;29;20097;-81
2023/05/09 00:19:10;;;;;;;26.02;21.67;;;;;;;14.53;85.68;101565.69;4831197;29;20044;-81
2023/05/09 00:21:35;;;;;;;25.17;21.08;;;;;;;14.45;85.90;101558.59;4839026;29;20034;-81
2023/05/09 00:24:04;;;;;;;25.80;20.83;;;;;;;14.39;85.97;101562.09;4840709;29;20026;-81
2023/05/09 00:26:29;;;;;;;27.60;21.75;;;;;;;14.35;86.12;101555.44;4835327;29;20487;-84
2023/05/09 00:28:55;;;;;;;24.98;20.05;;;;;;;14.31;86.04;101548.75;4842558;29;20065;-84
2023/05/09 00:31:21;;;;;;;29.00;22.23;;;;;;;14.27;86.44;101548.34;4840015;29;20038;-84
2023/05/09 00:33:46;;;;;;;24.80;20.50;;;;;;;14.25;86.89;101550.41;4840040;29;20042;-85
2023/05/09 00:36:11;;;;;;;28.27;21.52;;;;;;;14.32;86.85;101551.25;4841355;29;20399;-86
2023/05/09 00:38:37;;;;;;;33.63;24.42;;;;;;;14.25;87.49;101550.41;4840837;29;20038;-86
2023/05/09 00:41:02;;;;;;;35.25;25.90;;;;;;;14.21;87.98;101549.16;4829605;29;20113;-86
2023/05/09 00:43:31;;;;;;;33.60;25.25;;;;;;;14.17;88.19;101537.06;4840325;29;20044;-85
2023/05/09 00:48:31;;;;;;;33.15;24.40;;;;;;;14.14;88.17;101527.47;5379285;24;20445;-86
2023/05/09 00:50:56;;;;;;;33.72;25.13;;;;;;;14.13;88.13;101519.53;4844064;29;20042;-86
2023/05/09 00:53:22;;;;;;;33.10;24.58;;;;;;;14.10;87.71;101509.97;4840840;29;20082;-85
2023/05/09 00:55:47;;;;;;;33.85;26.67;;;;;;;14.08;87.93;101504.78;4829197;29;20035;-85
2023/05/09 00:58:14;;;;;;;35.20;25.58;;;;;;;14.08;87.81;101514.75;4856278;29;20081;-86
2023/05/09 01:00:39;;;;;;;35.17;24.38;;;;;;;14.14;87.71;101513.09;4861019;29;20017;-87
2023/05/09 01:03:04;;;;;;;29.02;23.17;;;;;;;14.25;87.04;101507.09;4844448;29;20285;-86
2023/05/09 01:05:47;;;;;;;28.08;22.42;;;;;;;14.31;86.74;101506.25;4854882;29;20129;-86
2023/05/09 01:08:19;;;;;;;33.33;26.30;;;;;;;14.23;87.12;101503.75;4813167;29;20120;-86
2023/05/09 01:11:00;;;;;;;35.22;25.95;;;;;;;14.14;87.52;101504.97;4836563;29;20061;-86
2023/05/09 01:13:48;;;;;;;31.02;24.33;;;;;;;14.22;87.14;101492.06;4838757;29;20451;-86
2023/05/09 01:16:22;;;;;;;34.30;24.75;;;;;;;14.14;87.12;101481.44;4837063;29;20042;-86
2023/05/09 01:18:58;;;;;;;33.95;24.88;;;;;;;14.09;87.29;101475.81;4835912;29;20043;-86
2023/05/09 01:21:26;;;;;;;35.00;25.70;;;;;;;14.02;87.72;101474.97;4838271;29;20042;-86
2023/05/09 01:24:01;;;;;;;33.38;24.75;;;;;;;13.98;87.94;101477.22;4819305;29;20183;-86
2023/05/09 01:26:50;;;;;;;38.40;27.08;;;;;;;13.93;88.08;101468.91;4836351;29;20181;-86
2023/05/09 01:29:47;;;;;;;35.63;26.25;;;;;;;13.88;88.32;101476.81;4840562;29;20036;-86
2023/05/09 01:32:16;;;;;;;37.45;26.38;;;;;;;13.86;88.36;101471.56;4838958;29;20022;-86
2023/05/09 01:34:42;;;;;;;32.85;24.35;;;;;;;13.86;88.42;101473.47;4833355;29;20030;-87
2023/05/09 01:37:08;;;;;;;37.75;27.85;;;;;;;13.88;88.93;101468.69;4822184;29;20042;-86
2023/05/09 01:39:33;;;;;;;36.53;26.67;;;;;;;13.86;88.84;101465.34;4830026;29;20034;-86
2023/05/09 01:42:01;;;;;;;39.20;27.73;;;;;;;13.84;88.50;101456.59;4838787;29;20042;-86
2023/05/09 01:44:26;;;;;;;32.70;25.05;;;;;;;13.84;88.75;101456.59;4842169;29;20034;-86
2023/05/09 01:46:52;;;;;;;34.95;25.02;;;;;;;13.83;88.56;101449.50;4826201;29;20113;-86
2023/05/09 01:49:17;;;;;;;34.15;25.58;;;;;;;13.79;88.45;101447.19;4816688;29;20045;-86
2023/05/09 01:51:43;;;;;;;35.25;25.73;;;;;;;13.78;88.57;101456.34;4828554;29;20060;-86
2023/05/09 01:54:08;;;;;;;41.75;26.50;;;;;;;13.75;89.11;101454.09;4843660;29;20034;-85
2023/05/09 01:56:35;;;;;;;35.90;25.95;;;;;;;13.76;88.73;101461.16;4825954;29;20033;-86
2023/05/09 01:59:00;;;;;;;36.85;26.58;;;;;;;13.85;89.08;101458.25;4840176;29;20112;-86
2023/05/09 02:01:26;;;;;;;33.63;26.13;;;;;;;13.85;88.98;101461.81;4825456;29;20066;-86
2023/05/09 02:03:51;;;;;;;36.53;26.88;;;;;;;13.86;88.83;101465.34;4842962;29;20028;-86
2023/05/09 02:06:17;;;;;;;36.97;27.17;;;;;;;13.90;89.20;101467.44;4825211;29;20033;-86
2023/05/09 02:08:43;;;;;;;38.42;27.80;;;;;;;13.88;89.15;101464.09;4822915;29;20030;-86
2023/05/09 02:11:08;;;;;;;38.70;26.25;;;;;;;13.94;89.36;101468.69;4839370;29;20094;-87
2023/05/09 02:13:34;;;;;;;35.25;26.50;;;;;;;13.95;89.12;101464.09;4841588;29;20423;-87
2023/05/09 02:15:59;;;;;;;38.45;26.67;;;;;;;14.23;87.88;101468.53;4824721;29;20050;-86
2023/05/09 02:18:25;;;;;;;33.83;25.73;;;;;;;14.31;87.26;101467.50;4841489;29;20058;-86
2023/05/09 02:20:50;;;;;;;37.30;27.65;;;;;;;14.27;86.98;101464.41;4844704;29;20026;-86
2023/05/09 02:23:15;;;;;;;41.65;29.25;;;;;;;14.19;87.66;101456.44;4843194;29;20046;-86
2023/05/09 02:25:41;;;;;;;42.08;29.38;;;;;;;14.18;87.59;101449.38;4839183;29;20042;-86
2023/05/09 02:28:06;;;;;;;45.28;30.42;;;;;;;14.16;87.72;101446.88;4841889;29;20038;-86
2023/05/09 02:30:35;;;;;;;43.55;30.02;;;;;;;14.16;87.85;101444.16;4833060;29;20678;-86
2023/05/09 02:33:08;;;;;;;41.55;28.45;;;;;;;14.17;87.98;101445.00;4812283;29;20033;-86
2023/05/09 02:35:34;;;;;;;46.75;29.30;;;;;;;14.31;87.43;101456.69;4827851;29;20138;-87
2023/05/09 02:37:59;;;;;;;47.58;30.42;;;;;;;14.28;87.35;101452.53;4839728;29;20117;-87
2023/05/09 02:40:28;;;;;;;48.45;29.85;;;;;;;14.36;87.00;101449.59;4835492;29;20038;-87
2023/05/09 02:42:54;;;;;;;49.85;30.70;;;;;;;14.54;86.20;101456.28;4841483;29;20070;-86
2023/05/09 02:45:19;;;;;;;52.78;31.40;;;;;;;14.54;85.94;101451.69;4841693;29;20029;-86
2023/05/09 02:47:45;;;;;;;54.50;31.17;;;;;;;14.54;86.07;101456.28;4841986;29;20056;-87
2023/05/09 02:50:10;;;;;;;54.72;32.83;;;;;;;14.61;85.93;101457.09;4857103;29;20135;-86
2023/05/09 02:52:36;;;;;;;58.45;32.70;;;;;;;14.64;85.61;101453.13;4841688;29;20034;-86
2023/05/09 02:55:02;;;;;;;54.85;32.33;;;;;;;14.55;85.82;101453.38;4839878;29;20034;-86
2023/05/09 02:57:27;;;;;;;55.47;31.85;;;;;;;14.64;85.45;101453.13;4827110;29;20034;-86
2023/05/09 02:59:53;;;;;;;53.33;30.70;;;;;;;14.47;85.85;101445.44;4839596;29;20038;-87
2023/05/09 03:02:18;;;;;;;62.65;32.58;;;;;;;14.34;86.35;101430.00;4841101;29;20078;-86
2023/05/09 03:04:44;;;;;;;67.13;34.47;;;;;;;14.44;86.23;101432.31;4843183;29;20034;-87
2023/05/09 03:07:10;;;;;;;63.75;33.92;;;;;;;14.51;85.86;101437.72;4841427;29;20025;-87
2023/05/09 03:09:36;;;;;;;62.80;34.30;;;;;;;14.44;85.71;101426.88;4842194;29;20117;-86
2023/05/09 03:12:02;;;;;;;62.53;33.63;;;;;;;14.50;85.93;101439.59;4841758;29;20498;-87
2023/05/09 03:14:28;;;;;;;63.45;32.90;;;;;;;14.57;85.50;101434.19;4839815;29;20033;-86
2023/05/09 03:16:53;;;;;;;70.85;35.72;;;;;;;14.61;85.50;101421.88;4841008;29;20499;-86
2023/05/09 03:19:18;;;;;;;68.53;35.20;;;;;;;14.58;85.44;101411.47;4840930;29;20502;-87
2023/05/09 03:21:45;;;;;;;66.60;36.20;;;;;;;14.60;85.21;101416.66;4841482;29;20030;-85
2023/05/09 03:24:10;;;;;;;71.22;36.20;;;;;;;14.61;84.93;101410.19;4841439;29;20034;-86
2023/05/09 03:26:36;;;;;;;73.25;35.45;;;;;;;14.48;85.28;101413.75;4842186;29;20037;-85
2023/05/09 03:29:02;;;;;;;72.85;34.83;;;;;;;14.48;85.84;101416.44;4839503;29;20030;-88
2023/05/09 03:31:30;;;;;;;74.07;36.30;;;;;;;14.53;85.12;101422.09;4841014;29;20022;-86
2023/05/09 03:33:57;;;;;;;70.72;34.20;;;;;;;14.48;85.27;101420.00;4841225;29;20073;-85
2023/05/09 03:36:22;;;;;;;78.20;37.38;;;;;;;14.51;85.48;101414.19;4824070;29;20448;-85
2023/05/09 03:38:48;;;;;;;76.55;35.42;;;;;;;14.56;84.53;101406.22;4827840;29;20049;-86
2023/05/09 03:41:15;;;;;;;75.10;35.03;;;;;;;14.55;84.49;101409.16;4825295;29;20406;-85
2023/05/09 03:43:40;;;;;;;71.90;33.95;;;;;;;14.53;84.65;101405.84;4840921;29;20955;-85
2023/05/09 03:46:07;;;;;;;77.32;35.60;;;;;;;14.55;84.44;101407.31;4840367;29;20114;-85
2023/05/09 03:48:32;;;;;;;74.63;35.58;;;;;;;14.52;84.52;101399.59;4841765;29;20045;-86
2023/05/09 03:50:58;;;;;;;67.72;33.33;;;;;;;14.50;84.53;101400.81;4841791;29;20038;-86
2023/05/09 03:53:23;;;;;;;74.72;35.83;;;;;;;14.43;84.70;101391.88;4840617;29;20110;-83
2023/05/09 03:55:48;;;;;;;77.82;35.78;;;;;;;14.47;84.52;101395.84;4833265;29;20044;-77
2023/05/09 03:58:14;;;;;;;77.05;35.33;;;;;;;14.35;84.81;101377.50;4836190;29;20086;-79
2023/05/09 04:00:39;;;;;;;73.53;33.47;;;;;;;14.27;85.23;101380.44;4837572;29;20044;-79
2023/05/09 04:03:05;;;;;;;82.85;37.28;;;;;;;14.19;85.92;101372.50;4825896;29;20025;-77
2023/05/09 04:05:32;;;;;;;76.10;34.45;;;;;;;14.18;86.11;101382.53;4829880;29;20471;-76
2023/05/09 04:07:57;;;;;;;74.22;35.55;;;;;;;14.20;86.08;101375.03;4832881;29;20042;-79
2023/05/09 04:10:24;;;;;;;73.70;33.95;;;;;;;14.27;86.14;101371.47;4823667;29;20030;-78
2023/05/09 04:12:49;;;;;;;70.93;35.05;;;;;;;14.29;86.09;101378.38;4836979;29;20387;-79
2023/05/09 04:15:15;;;;;;;73.80;34.17;;;;;;;14.34;85.48;101381.25;4837634;29;20038;-78
2023/05/09 04:17:40;;;;;;;72.88;33.35;;;;;;;14.25;85.80;101379.81;4837142;29;20038;-78
2023/05/09 04:20:07;;;;;;;71.35;33.03;;;;;;;14.24;86.14;101375.44;4842154;29;20101;-78
2023/05/09 04:22:32;;;;;;;77.95;35.70;;;;;;;14.32;85.59;101375.22;4841607;29;20506;-79
2023/05/09 04:24:57;;;;;;;73.15;34.05;;;;;;;14.42;85.15;101376.69;4841338;29;20034;-79
2023/05/09 04:27:23;;;;;;;76.13;35.13;;;;;;;14.39;85.21;101373.34;4845707;29;20505;-78
2023/05/09 04:29:48;;;;;;;71.50;34.17;;;;;;;14.53;84.53;101379.59;4847466;29;20037;-78
2023/05/09 04:32:14;;;;;;;78.60;36.50;;;;;;;14.48;84.56;101378.53;4839876;29;20026;-78
2023/05/09 04:34:40;;;;;;;74.90;33.92;;;;;;;14.54;84.58;101381.25;4834645;29;20063;-79
2023/05/09 04:37:05;;;;;;;87.07;37.88;;;;;;;14.42;84.98;101376.69;4840975;29;20133;-79
2023/05/09 04:39:30;;;;;;;70.25;34.58;;;;;;;14.43;85.01;101375.63;4839120;29;20491;-79
2023/05/09 04:41:56;;;;;;;72.45;33.55;;;;;;;14.44;84.84;101374.59;4841423;29;20037;-78
2023/05/09 04:44:22;;;;;;;71.88;32.22;;;;;;;14.35;85.35;101376.69;4840452;29;20042;-79
2023/05/09 04:46:47;;;;;;;83.40;35.58;;;;;;;14.36;85.04;101368.34;4836728;29;20537;-79
2023/05/09 04:49:13;;;;;;;71.32;33.65;;;;;;;14.55;84.32;101365.81;4840724;29;20070;-79
2023/05/09 04:51:38;;;;;;;71.78;31.75;;;;;;;14.53;84.48;101368.75;4839796;29;20050;-79
2023/05/09 04:54:03;;;;;;;73.93;34.50;;;;;;;14.46;84.84;101364.38;4839662;29;20082;-78
2023/05/09 04:56:29;;;;;;;72.68;33.50;;;;;;;14.41;85.15;101359.56;4840977;29;20045;-79
2023/05/09 04:58:54;;;;;;;73.00;33.75;;;;;;;14.50;84.63;101352.91;4839277;29;20402;-79
2023/05/09 05:01:19;;;;;;;61.58;29.95;;;;;;;14.61;84.19;101354.16;4837202;29;20079;-78
2023/05/09 05:03:45;;;;;;;68.03;32.25;;;;;;;14.56;84.46;101360.19;4841187;29;20042;-79
2023/05/09 05:06:10;;;;;;;72.43;33.47;;;;;;;14.66;83.73;101354.31;4838775;29;20025;-79
2023/05/09 05:08:36;;;;;;;69.22;32.58;;;;;;;14.68;83.32;101354.16;4832313;29;20025;-79
2023/05/09 05:11:01;;;;;;;68.45;32.88;;;;;;;14.75;83.17;101354.13;4823618;29;20399;-78
2023/05/09 05:13:26;;;;;;;71.75;32.40;;;;;;;14.80;82.73;101357.06;4841212;29;20034;-79
2023/05/09 05:15:52;;;;;;;74.13;34.00;;;;;;;14.68;83.92;101354.16;4827587;29;20036;-79
2023/05/09 05:18:17;;;;;;;72.05;33.28;;;;;;;14.78;82.82;101351.00;4840327;29;20038;-78
2023/05/09 05:20:42;;;;;;;68.20;31.90;;;;;;;14.85;82.31;101347.22;4840161;29;20029;-79
2023/05/09 05:23:08;;;;;;;70.40;32.35;;;;;;;14.89;81.99;101350.34;4839716;29;20026;-79
2023/05/09 05:25:33;;;;;;;71.50;33.00;;;;;;;14.91;81.51;101347.44;4840309;29;20041;-79
2023/05/09 05:27:59;;;;;;;71.15;32.10;;;;;;;14.89;81.26;101344.91;4839814;29;20026;-78
2023/05/09 05:30:25;;;;;;;66.15;31.13;;;;;;;14.76;82.58;101339.53;4839778;29;20568;-79
2023/05/09 05:32:51;;;;;;;66.43;31.88;;;;;;;14.86;82.03;101331.78;4839828;29;20049;-79
2023/05/09 05:35:16;;;;;;;68.68;32.53;;;;;;;15.01;81.36;101335.06;4836720;29;20049;-79
2023/05/09 05:37:42;;;;;;;62.50;31.15;;;;;;;15.09;80.78;101335.88;4840379;29;20516;-79
2023/05/09 05:40:08;;;;;;;64.68;32.08;;;;;;;15.16;80.55;101336.69;4840905;29;20034;-79
2023/05/09 05:42:34;;;;;;;68.60;30.98;;;;;;;15.15;80.62;101335.84;4840097;29;20479;-79
2023/05/09 05:45:03;;;;;;;66.32;30.48;;;;;;;15.19;79.84;101336.25;4839764;29;20046;-78
2023/05/09 05:47:33;;;;;;;69.70;33.13;;;;;;;15.12;80.09;101335.47;4840140;29;20061;-78
2023/05/09 05:49:59;;;;;;;64.70;31.23;;;;;;;15.17;80.08;101335.66;4835001;29;20501;-79
2023/05/09 05:52:25;;;;;;;62.03;31.98;;;;;;;15.26;79.80;101323.50;4838641;29;20041;-79
2023/05/09 05:54:52;;;;;;;63.28;29.90;;;;;;;15.34;79.07;101319.69;4815419;29;20390;-79
2023/05/09 05:57:17;;;;;;;61.00;30.27;;;;;;;15.33;79.11;101311.78;4840065;29;20030;-79
2023/05/09 05:59:42;;;;;;;60.15;30.23;;;;;;;15.41;78.53;101311.50;4838906;29;20026;-78
2023/05/09 06:02:08;;;;;;;56.63;27.92;;;;;;;15.48;78.15;101312.31;4836407;29;20501;-78
2023/05/09 06:04:33;;;;;;;55.92;29.85;;;;;;;15.59;77.99;101310.78;4828445;29;20030;-79
2023/05/09 06:06:58;;;;;;;54.58;28.48;;;;;;;15.53;77.74;101307.03;4838354;29;20605;-79
2023/05/09 06:09:24;;;;;;;53.92;27.08;;;;;;;15.52;77.62;101305.41;4823975;29;20033;-79
2023/05/09 06:11:49;;;;;;;53.45;26.80;;;;;;;15.51;76.69;101303.75;4837555;29;20022;-79
2023/05/09 06:14:15;;;;;;;52.40;27.38;;;;;;;15.55;76.97;101299.50;4839757;29;20038;-90
2023/05/09 06:16:40;;;;;;;52.72;27.42;;;;;;;15.53;77.38;101300.78;4839435;29;20073;-89
2023/05/09 06:19:06;;;;;;;53.40;26.48;;;;;;;15.47;77.19;101297.09;4832402;29;20379;-89
2023/05/09 06:21:33;;;;;;;50.65;26.50;;;;;;;15.45;77.44;101305.41;4843818;29;20658;-83
2023/05/09 06:24:01;;;;;;;49.13;25.13;;;;;;;15.52;76.78;101293.69;4831044;29;20033;-89
2023/05/09 06:26:27;;;;;;;49.83;25.52;;;;;;;15.52;77.09;101289.13;4825748;29;20045;-89
2023/05/09 06:28:52;;;;;;;49.90;24.80;;;;;;;15.59;76.96;101295.31;4817028;29;20050;-89
2023/05/09 06:31:18;;;;;;;45.33;24.80;;;;;;;15.67;76.49;101287.97;4846479;29;20045;-88
2023/05/09 06:33:46;;;;;;;49.10;26.13;;;;;;;15.66;76.15;101289.03;4863314;29;20044;-89
2023/05/09 06:36:12;;;;;;;48.25;25.33;;;;;;;15.63;76.44;101279.41;4870433;29;20045;-88
2023/05/09 06:38:37;;;;;;;48.50;25.25;;;;;;;15.65;76.60;101276.50;4845004;29;20030;-87
2023/05/09 06:41:03;;;;;;;49.00;27.02;;;;;;;15.54;76.88;101268.00;4845102;29;20053;-87
2023/05/09 06:43:28;;;;;;;48.63;25.40;;;;;;;15.59;77.23;101262.75;4850569;29;20026;-89
2023/05/09 06:45:53;;;;;;;44.83;24.85;;;;;;;15.75;76.66;101265.97;4845079;29;20395;-89
2023/05/09 06:48:19;;;;;;;43.13;23.55;;;;;;;15.72;75.70;101255.53;4846554;29;20054;-88
2023/05/09 06:50:44;;;;;;;42.22;22.55;;;;;;;15.83;75.09;101256.72;4827602;29;20049;-87
2023/05/09 06:53:12;;;;;;;43.75;24.00;;;;;;;15.86;75.28;101262.59;4829937;29;20102;-89
2023/05/09 06:55:37;;;;;;;41.17;23.10;;;;;;;15.92;74.74;101255.44;4826573;29;20068;-89
2023/05/09 06:58:03;;;;;;;41.40;22.20;;;;;;;16.01;74.33;101250.53;4829642;29;20030;-89
2023/05/09 07:00:28;;;;;;;40.45;23.25;;;;;;;16.16;74.61;101251.00;4844537;29;20022;-89
2023/05/09 07:02:54;;;;;;;40.67;23.55;;;;;;;16.21;74.49;101243.03;4837439;29;20070;-89
2023/05/09 07:08:27;;;;;;;43.97;23.40;;;;;;;16.86;72.23;101231.81;4819703;29;20061;-90
2023/05/09 07:10:52;;;;;;;38.03;22.75;;;;;;;17.02;71.76;101242.06;4819177;29;20463;-89
2023/05/09 07:13:18;;;;;;;40.20;23.50;;;;;;;17.02;70.97;101231.19;4845282;29;20038;-88
2023/05/09 07:15:43;;;;;;;40.45;23.27;;;;;;;16.94;70.74;101235.03;4845134;29;20208;-88
2023/05/09 07:18:09;;;;;;;44.83;25.58;;;;;;;16.93;70.92;101227.13;4843923;29;20038;-87
2023/05/09 07:20:34;;;;;;;41.15;23.80;;;;;;;16.89;71.30;101225.91;4841984;29;20395;-89
2023/05/09 07:23:02;;;;;;;41.00;24.00;;;;;;;16.99;70.50;101209.88;4843599;29;20040;-88
2023/05/09 07:25:27;;;;;;;39.75;24.55;;;;;;;17.00;71.05;101217.00;4844031;29;20109;-87
2023/05/09 07:27:53;;;;;;;43.38;24.60;;;;;;;17.18;70.48;101212.56;4845124;29;20036;-89
2023/05/09 07:30:18;;;;;;;39.63;23.95;;;;;;;17.35;70.13;101213.53;4853240;29;20033;-88
2023/05/09 07:32:43;;;;;;;39.90;24.05;;;;;;;17.49;69.65;101210.59;4845187;29;20045;-89
2023/05/09 07:35:09;;;;;;;40.60;23.33;;;;;;;17.69;68.79;101207.56;4843880;29;20032;-89
2023/05/09 07:37:34;;;;;;;42.17;25.13;;;;;;;17.78;68.05;101199.88;4844066;29;20398;-88
2023/05/09 07:40:00;;;;;;;41.63;24.38;;;;;;;17.87;67.98;101209.31;4835067;29;20042;-89
2023/05/09 07:42:25;;;;;;;44.08;25.38;;;;;;;17.95;68.54;101205.41;4829808;29;20026;-89
2023/05/09 07:44:51;;;;;;;39.22;23.98;;;;;;;18.18;67.26;101215.47;4837216;29;20034;-88
2023/05/09 07:47:16;;;;;;;40.67;24.98;;;;;;;18.30;67.37;101202.69;4841591;29;20030;-88
2023/05/09 07:49:44;;;;;;;40.55;24.50;;;;;;;18.51;67.37;101205.00;4831901;29;20043;-88
2023/05/09 07:52:09;;;;;;;42.25;25.27;;;;;;;18.56;66.42;101197.75;4828109;29;20105;-88
2023/05/09 07:54:34;;;;;;;43.45;26.63;;;;;;;18.73;66.65;101195.09;4839662;29;20490;-89
2023/05/09 07:57:00;;;;;;;41.42;25.85;;;;;;;19.32;64.83;101190.41;4842056;29;20497;-89
2023/05/09 07:59:25;;;;;;;40.75;25.63;;;;;;;19.48;63.21;101189.59;4842762;29;20026;-89
2023/05/09 08:01:51;;;;;;;42.33;26.80;;;;;;;19.72;62.95;101188.56;4854277;29;20034;-89
2023/05/09 08:04:16;;;;;;;40.70;26.60;;;;;;;19.77;62.01;101173.06;4842803;29;20045;-89
2023/05/09 08:06:42;;;;;;;42.17;27.15;;;;;;;19.39;63.56;101172.78;4842077;29;20171;-88
2023/05/09 08:09:07;;;;;;;41.00;26.83;;;;;;;19.92;61.80;101169.78;4843531;29;20022;-88
2023/05/09 08:11:33;;;;;;;37.97;25.38;;;;;;;20.06;60.54;101167.50;4842514;29;20034;-89
2023/05/09 08:13:58;;;;;;;39.22;25.52;;;;;;;20.40;59.32;101161.06;4842478;29;20034;-89
2023/05/09 08:16:24;;;;;;;39.70;24.83;;;;;;;20.25;58.97;101159.81;4841587;29;20491;-89
2023/05/09 08:18:52;;;;;;;41.85;26.85;;;;;;;19.97;61.74;101158.91;4842987;29;20037;-89
2023/05/09 08:21:18;;;;;;;38.95;24.40;;;;;;;20.54;58.94;101158.78;4842571;29;20050;-88
2023/05/09 08:23:44;;;;;;;40.05;25.95;;;;;;;20.98;57.92;101147.78;4845288;29;20400;-88
2023/05/09 08:26:09;;;;;;;37.13;24.67;;;;;;;21.42;56.40;101146.75;4838191;29;20061;-88
2023/05/09 08:28:35;;;;;;;35.78;24.52;;;;;;;21.53;56.50;101150.38;4855496;29;20029;-89
2023/05/09 08:31:00;;;;;;;35.03;23.75;;;;;;;21.22;55.68;101139.19;4853921;29;20022;-89
2023/05/09 08:33:26;;;;;;;33.97;23.35;;;;;;;21.60;55.58;101140.03;4845642;29;20463;-89
2023/05/09 08:35:52;;;;;;;34.92;24.00;;;;;;;21.40;56.16;101137.13;4842296;29;20025;-88
2023/05/09 08:38:17;;;;;;;37.40;25.25;;;;;;;20.98;57.85;101134.09;4841306;29;20026;-88
2023/05/09 08:40:43;;;;;;;35.72;24.13;;;;;;;21.41;56.19;101131.41;4843040;29;20067;-88
2023/05/09 08:43:10;;;;;;;38.10;24.52;;;;;;;21.69;56.46;101137.63;4842818;29;20030;-89
2023/05/09 08:45:41;;;;;;;34.70;23.80;;;;;;;22.04;54.23;101125.19;4842620;29;20082;-88
2023/05/09 08:48:07;;;;;;;32.80;23.48;;;;;;;21.91;54.00;101125.69;4842632;29;20046;-89
2023/05/09 08:50:34;;;;;;;31.98;23.38;;;;;;;22.02;53.60;101123.81;4855219;29;20124;-88
2023/05/09 08:52:59;;;;;;;34.28;23.08;;;;;;;21.93;54.21;101123.50;4840123;29;20022;-89
2023/05/09 08:55:25;;;;;;;34.88;23.77;;;;;;;21.59;54.92;101110.97;4842466;29;20046;-89
2023/05/09 08:57:51;;;;;;;31.88;22.60;;;;;;;21.70;54.12;101111.88;4837789;29;20094;-87
2023/05/09 09:00:19;;;;;;;32.80;21.98;;;;;;;22.00;53.31;101120.50;4837479;29;20450;-87
2023/05/09 09:02:45;;;;;;;28.55;19.55;;;;;;;22.01;52.20;101111.19;4849943;29;20086;-86
2023/05/09 09:05:11;;;;;;;30.35;20.52;;;;;;;21.73;52.76;101108.59;4846480;29;20030;-88
2023/05/09 09:07:45;;;;;;;27.80;19.92;;;;;;;21.50;53.28;101096.94;4827672;29;20033;-87
2023/05/09 09:10:41;;;;;;;28.25;20.42;;;;;;;21.61;53.25;101106.06;4840448;29;20505;-88
2023/05/09 09:13:21;;;;;;;25.17;18.58;;;;;;;21.63;52.82;101090.19;4843851;29;20444;-87
2023/05/09 09:15:47;;;;;;;29.13;19.35;;;;;;;21.98;52.43;101090.63;4840905;29;20113;-85
2023/05/09 09:18:20;;;;;;;23.45;17.30;;;;;;;21.87;51.12;101086.19;4842840;29;20435;-89
2023/05/09 09:21:40;;;;;;;24.17;17.77;;;;;;;21.74;51.58;101095.72;4826789;29;20112;-87
2023/05/09 09:24:06;;;;;;;24.20;17.77;;;;;;;21.39;51.25;101081.53;4834467;29;20042;-86
2023/05/09 09:26:47;;;;;;;25.48;17.67;;;;;;;21.86;50.75;101082.66;4831600;29;20026;-86
2023/05/09 09:29:44;;;;;;;24.48;18.02;;;;;;;22.98;49.56;101085.06;4852261;29;20033;-87
2023/05/09 09:32:09;;;;;;;;;;;;;;;23.57;45.91;101074.56;4848482;29;20034;-87
2023/05/09 09:34:40;;;;;;;19.53;15.30;;;;;;;23.62;45.76;101066.31;4843870;29;19934;-86
2023/05/09 09:37:06;;;;;;;17.55;13.73;;;;;;;24.24;44.09;101066.03;4847548;29;20069;-87
2023/05/09 09:42:11;;;;;;;20.05;15.75;;;;;;;24.35;43.89;101064.03;4878092;24;20065;-86
2023/05/09 09:44:50;;;;;;;17.23;13.32;;;;;;;24.60;43.58;101065.78;4842212;29;20447;-85
2023/05/09 09:47:32;;;;;;;17.05;13.00;;;;;;;24.80;42.82;101056.56;4828217;29;20049;-86
2023/05/09 09:49:59;;;;;;;17.65;13.85;;;;;;;24.41;43.33;101057.41;4827653;29;20109;-86
2023/05/09 09:52:25;;;;;;;16.35;13.10;;;;;;;24.43;43.61;101055.19;4826326;29;20041;-85
2023/05/09 09:54:53;;;;;;;15.35;12.48;;;;;;;24.31;43.40;101043.72;4840285;29;20034;-85
2023/05/09 09:57:38;;;;;;;10.63;9.30;;;;;;;23.40;43.76;101041.91;4839691;29;20471;-88
2023/05/09 10:00:05;;;;;;;7.87;7.07;;;;;;;23.43;43.81;101044.09;4836786;29;20030;-88
2023/05/09 10:02:30;;;;;;;10.73;8.95;;;;;;;23.50;43.70;101036.41;4841813;29;20060;-89
2023/05/09 10:08:27;;;;;;;11.43;9.10;;;;;;;23.20;44.74;101024.38;4825183;29;20587;-87
2023/05/09 10:10:57;;;;;;;15.50;10.30;;;;;;;23.42;45.19;101023.22;4830537;29;20034;-87
2023/05/09 10:13:22;;;;;;;13.98;10.60;;;;;;;23.40;45.69;101020.75;4825507;29;20034;-88
2023/05/09 10:15:47;;;;;;;15.15;11.85;;;;;;;23.16;46.28;101024.06;4805399;29;20084;-84
2023/05/09 10:18:16;;;;;;;13.40;10.55;;;;;;;23.79;43.79;101021.97;4823591;29;20095;-83
2023/05/09 10:20:42;;;;;;;12.55;10.70;;;;;;;23.51;45.29;101029.78;4822485;29;20022;-83
2023/05/09 10:23:07;;;;;;;12.43;10.65;;;;;;;24.22;43.39;101021.47;4820182;29;20038;-83
2023/05/09 10:25:45;;;;;;;14.40;10.98;;;;;;;24.75;42.14;101014.50;4823012;29;20506;-84
2023/05/09 10:28:11;;;;;;;12.10;10.10;;;;;;;24.59;42.48;101008.28;4844551;29;20072;-83
2023/05/09 10:30:49;;;;;;;9.85;8.85;;;;;;;24.15;42.36;101007.25;4844461;29;20094;-84
2023/05/09 10:33:15;;;;;;;11.02;9.80;;;;;;;24.21;42.24;101009.66;4828277;29;20030;-84
2023/05/09 10:35:44;;;;;;;11.95;10.00;;;;;;;24.07;43.20;101006.72;4843548;29;20061;-90
2023/05/09 10:38:11;;;;;;;10.38;8.90;;;;;;;24.23;43.77;100992.88;4833403;29;20121;-89
2023/05/09 10:40:36;;;;;;;11.90;9.80;;;;;;;24.44;42.67;100984.47;4823682;29;20050;-85
2023/05/09 10:43:02;;;;;;;13.18;10.15;;;;;;;24.30;43.54;100976.88;4830123;29;20035;-85
2023/05/09 10:45:27;;;;;;;11.40;9.00;;;;;;;24.80;42.45;100981.41;4818592;29;20030;-84
2023/05/09 10:47:55;;;;;;;10.80;8.48;;;;;;;24.55;42.24;100977.75;4822136;29;20388;-85
2023/05/09 10:50:21;;;;;;;9.40;7.97;;;;;;;24.56;41.97;100971.13;4825644;29;20479;-85
2023/05/09 10:53:10;;;;;;;9.52;8.52;;;;;;;24.45;42.80;100969.59;4821727;29;20044;-85
2023/05/09 10:55:55;;;;;;;12.13;9.10;;;;;;;24.06;43.67;100960.28;4823184;29;20047;-85
2023/05/09 10:58:32;;;;;;;11.03;8.73;;;;;;;23.72;45.53;100961.81;4822728;29;20145;-85
2023/05/09 11:00:58;;;;;;;10.75;9.18;;;;;;;23.65;44.93;100969.53;4823780;29;20026;-85
2023/05/09 11:03:24;;;;;;;12.55;9.75;;;;;;;22.58;47.09;100971.47;4824580;29;20088;-84
2023/05/09 11:05:52;;;;;;;12.02;10.10;;;;;;;21.79;49.97;100967.78;4824155;29;20538;-86
2023/05/09 11:08:28;;;;;;;12.60;9.88;;;;;;;21.94;49.55;100956.03;4820644;29;20039;-86
2023/05/09 11:10:54;;;;;;;14.73;10.20;;;;;;;21.75;50.11;100960.38;4818402;29;20039;-86
2023/05/09 11:13:24;;;;;;;14.38;11.02;;;;;;;21.12;53.54;100948.31;4826532;29;20464;-87
2023/05/09 11:15:52;;;;;;;13.43;11.60;;;;;;;21.05;54.17;100947.75;4833747;29;20042;-87
2023/05/09 11:18:17;;;;;;;15.93;12.27;;;;;;;21.00;54.84;100956.72;4818114;29;20095;-88
2023/05/09 11:20:44;;;;;;;14.88;12.25;;;;;;;20.37;56.49;100954.63;4831718;29;20022;-86
2023/05/09 11:23:10;;;;;;;15.25;11.82;;;;;;;20.05;58.08;100949.97;4828899;29;20034;-87